Time;durP1;ratioP1;P1;durP2;ratioP2;P2;SDS_P1;SDS_P2;PMS_P1;PMS_P2;Temp;Humidity;BMP_temperature;BMP_pressure;BME280_temperature;BME280_humidity;BME280_pressure;Samples;Min_cycle;Max_cycle;Signal;HPM_P1;HPM_P2
2023/03/21 00:02:08;;;;;;;6.20;2.80;;;;;;;;;;5064387;28;20203;-62
2023/03/21 00:04:35;;;;;;;4.00;3.17;;;;;;;;;;5068948;28;20205;-62
2023/03/21 00:07:02;;;;;;;7.17;3.47;;;;;;;;;;5064513;28;20204;-62
2023/03/21 00:09:29;;;;;;;4.40;2.83;;;;;;;;;;5065081;28;20195;-62
2023/03/21 00:12:00;;;;;;;3.63;2.67;;;;;;;;;;5064570;28;20290;-62
2023/03/21 00:14:29;;;;;;;5.87;2.73;;;;;;;;;;5060287;28;20286;-62
2023/03/21 00:16:56;;;;;;;5.57;3.10;;;;;;;;;;5065178;28;20257;-62
2023/03/21 00:19:25;;;;;;;6.37;3.00;;;;;;;;;;5063325;28;20225;-62
2023/03/21 00:21:54;;;;;;;4.73;3.03;;;;;;;;;;5061631;28;20204;-62
2023/03/21 00:24:22;;;;;;;5.43;3.27;;;;;;;;;;5058181;28;20228;-62
2023/03/21 00:26:49;;;;;;;5.63;3.33;;;;;;;;;;5066661;28;20260;-62
2023/03/21 00:29:17;;;;;;;5.27;3.53;;;;;;;;;;5066089;28;20290;-62
2023/03/21 00:31:45;;;;;;;4.33;3.00;;;;;;;;;;5068236;28;20198;-62
2023/03/21 00:34:12;;;;;;;8.23;3.73;;;;;;;;;;5069512;28;20210;-62
2023/03/21 00:36:39;;;;;;;4.40;3.10;;;;;;;;;;5069398;28;20202;-62
2023/03/21 00:39:06;;;;;;;6.33;3.10;;;;;;;;;;5068612;28;20308;-62
2023/03/21 00:41:33;;;;;;;5.47;3.30;;;;;;;;;;5066832;28;20199;-62
2023/03/21 00:44:01;;;;;;;6.50;3.47;;;;;;;;;;5064984;28;20231;-62
2023/03/21 00:46:29;;;;;;;4.57;3.00;;;;;;;;;;5066889;28;20235;-62
2023/03/21 00:48:56;;;;;;;6.03;3.60;;;;;;;;;;5069070;28;20213;-62
2023/03/21 00:51:25;;;;;;;4.87;3.23;;;;;;;;;;5064172;28;20207;-62
2023/03/21 00:53:54;;;;;;;5.13;3.70;;;;;;;;;;5064410;28;20206;-62
2023/03/21 00:56:21;;;;;;;8.43;3.70;;;;;;;;;;5066255;28;20194;-62
2023/03/21 00:58:48;;;;;;;8.23;3.73;;;;;;;;;;5068505;28;20219;-62
2023/03/21 01:01:16;;;;;;;4.30;3.23;;;;;;;;;;5063072;28;20211;-62
2023/03/21 01:03:49;;;;;;;7.50;3.60;;;;;;;;;;5068142;28;20209;-62
2023/03/21 01:06:18;;;;;;;5.10;3.53;;;;;;;;;;5062560;28;20214;-62
2023/03/21 01:08:46;;;;;;;6.00;3.47;;;;;;;;;;5067454;28;20195;-62
2023/03/21 01:11:14;;;;;;;6.03;3.33;;;;;;;;;;5066965;28;20215;-62
2023/03/21 01:13:42;;;;;;;6.77;3.10;;;;;;;;;;5065516;28;20206;-62
2023/03/21 01:16:10;;;;;;;6.63;3.17;;;;;;;;;;5063242;28;20211;-62
2023/03/21 01:18:38;;;;;;;6.37;3.47;;;;;;;;;;5066444;28;20219;-62
2023/03/21 01:21:08;;;;;;;5.30;2.97;;;;;;;;;;5062759;28;20195;-62
2023/03/21 01:23:35;;;;;;;7.50;3.60;;;;;;;;;;5062079;28;20212;-62
2023/03/21 01:26:02;;;;;;;4.30;2.90;;;;;;;;;;5065986;28;20201;-62
2023/03/21 01:28:30;;;;;;;4.70;3.43;;;;;;;;;;5066669;28;20313;-62
2023/03/21 01:30:57;;;;;;;6.03;3.50;;;;;;;;;;5063470;28;20211;-62
2023/03/21 01:33:24;;;;;;;5.00;3.10;;;;;;;;;;5066749;28;20217;-62
2023/03/21 01:35:52;;;;;;;5.97;3.53;;;;;;;;;;5063047;28;20230;-62
2023/03/21 01:38:20;;;;;;;6.23;3.50;;;;;;;;;;5066648;28;20218;-62
2023/03/21 01:40:49;;;;;;;5.67;2.90;;;;;;;;;;5066127;28;20301;-62
2023/03/21 01:43:26;;;;;;;5.20;3.57;;;;;;;;;;5064731;28;20212;-62
2023/03/21 01:46:20;;;;;;;6.23;3.67;;;;;;;;;;5070166;28;20293;-62
2023/03/21 01:48:48;;;;;;;5.57;3.60;;;;;;;;;;5047000;28;20231;-62
2023/03/21 01:51:15;;;;;;;4.70;3.20;;;;;;;;;;5064797;28;20207;-62
2023/03/21 01:53:46;;;;;;;8.63;3.50;;;;;;;;;;5060457;28;20214;-62
2023/03/21 01:56:17;;;;;;;5.47;3.40;;;;;;;;;;5066954;28;20207;-62
2023/03/21 01:58:45;;;;;;;6.17;3.70;;;;;;;;;;5061934;28;20215;-62
2023/03/21 02:01:14;;;;;;;4.53;3.33;;;;;;;;;;5067151;28;20203;-70
2023/03/21 02:03:48;;;;;;;6.00;3.40;;;;;;;;;;5065217;28;20218;-70
2023/03/21 02:06:18;;;;;;;5.40;3.03;;;;;;;;;;5065358;28;20218;-70
2023/03/21 02:08:47;;;;;;;6.23;3.00;;;;;;;;;;5063071;28;20204;-71
2023/03/21 02:11:15;;;;;;;4.13;2.77;;;;;;;;;;5066823;28;20204;-70
2023/03/21 02:13:42;;;;;;;5.37;2.90;;;;;;;;;;5067634;28;20291;-71
2023/03/21 02:16:14;;;;;;;8.10;3.80;;;;;;;;;;5066726;28;20199;-70
2023/03/21 02:18:46;;;;;;;4.63;3.07;;;;;;;;;;5068260;28;20225;-70
2023/03/21 02:21:28;;;;;;;6.73;4.23;;;;;;;;;;5066836;28;20203;-71
2023/03/21 02:24:24;;;;;;;5.87;3.43;;;;;;;;;;5012340;28;20202;-70
2023/03/21 02:27:03;;;;;;;4.33;3.10;;;;;;;;;;5065247;28;20211;-70
2023/03/21 02:29:45;;;;;;;7.00;3.67;;;;;;;;;;5057258;28;20207;-62
2023/03/21 02:37:25;;;;;;;4.77;3.30;;;;;;;;;;5014785;28;20220;-71
2023/03/21 02:40:00;;;;;;;6.13;4.07;;;;;;;;;;5015250;28;20323;-71
2023/03/21 02:42:29;;;;;;;7.77;4.37;;;;;;;;;;5014227;28;20334;-71
2023/03/21 02:45:00;;;;;;;7.53;4.17;;;;;;;;;;5015335;28;20290;-71
2023/03/21 02:47:29;;;;;;;6.57;3.70;;;;;;;;;;5022942;28;20295;-71
2023/03/21 02:49:58;;;;;;;7.50;3.30;;;;;;;;;;5020967;28;20200;-71
2023/03/21 02:52:29;;;;;;;5.37;3.30;;;;;;;;;;5017686;28;20212;-71
2023/03/21 02:54:57;;;;;;;5.30;3.30;;;;;;;;;;5017887;28;20210;-71
2023/03/21 02:57:24;;;;;;;6.00;3.53;;;;;;;;;;5023572;28;20295;-70
2023/03/21 02:59:52;;;;;;;9.57;4.00;;;;;;;;;;5017367;28;20232;-70
2023/03/21 03:02:21;;;;;;;6.17;4.00;;;;;;;;;;5018421;28;20205;-70
2023/03/21 03:04:49;;;;;;;7.13;3.90;;;;;;;;;;5018389;28;20204;-70
2023/03/21 03:07:23;;;;;;;8.30;4.27;;;;;;;;;;5016031;28;20200;-71
2023/03/21 03:10:00;;;;;;;7.03;3.87;;;;;;;;;;5016221;28;20198;-70
2023/03/21 03:12:32;;;;;;;8.13;4.07;;;;;;;;;;5019023;28;20208;-70
2023/03/21 03:15:03;;;;;;;7.17;3.93;;;;;;;;;;5019022;28;20204;-71
2023/03/21 03:17:36;;;;;;;6.40;3.93;;;;;;;;;;5014454;28;20208;-70
2023/03/21 03:20:10;;;;;;;5.60;3.70;;;;;;;;;;5017347;28;20308;-71
2023/03/21 03:22:40;;;;;;;7.73;4.30;;;;;;;;;;5016007;28;20294;-71
2023/03/21 03:25:10;;;;;;;6.10;3.53;;;;;;;;;;5015040;28;20207;-71
2023/03/21 03:27:39;;;;;;;5.93;3.47;;;;;;;;;;5018146;28;20200;-71
2023/03/21 03:30:08;;;;;;;7.03;3.90;;;;;;;;;;5020957;28;20208;-71
2023/03/21 03:32:37;;;;;;;5.80;3.83;;;;;;;;;;5016842;28;20208;-70
2023/03/21 03:35:05;;;;;;;6.30;3.53;;;;;;;;;;5019604;28;20204;-70
2023/03/21 03:37:34;;;;;;;8.40;4.00;;;;;;;;;;5023639;28;20220;-71
2023/03/21 03:40:04;;;;;;;9.80;3.60;;;;;;;;;;5015260;28;20240;-71
2023/03/21 03:42:36;;;;;;;6.90;3.90;;;;;;;;;;5022564;28;20251;-71
2023/03/21 03:45:03;;;;;;;7.07;3.73;;;;;;;;;;5017760;28;20208;-71
2023/03/21 03:47:34;;;;;;;5.07;3.70;;;;;;;;;;5015900;28;20204;-70
2023/03/21 03:50:03;;;;;;;7.40;3.90;;;;;;;;;;5023171;28;20202;-70
2023/03/21 03:52:32;;;;;;;5.83;2.90;;;;;;;;;;5021495;28;20211;-70
2023/03/21 03:55:00;;;;;;;6.23;3.23;;;;;;;;;;5022473;28;20204;-71
2023/03/21 03:57:28;;;;;;;7.43;3.50;;;;;;;;;;5019574;28;20218;-71
2023/03/21 03:59:56;;;;;;;7.07;3.70;;;;;;;;;;5014823;28;20340;-71
2023/03/21 04:02:23;;;;;;;5.57;3.17;;;;;;;;;;5022876;28;20207;-71
2023/03/21 04:04:52;;;;;;;6.03;3.60;;;;;;;;;;5022828;28;20208;-70
2023/03/21 04:07:20;;;;;;;4.20;3.10;;;;;;;;;;5021096;28;20208;-71
2023/03/21 04:09:47;;;;;;;7.37;3.20;;;;;;;;;;5024720;28;20268;-71
2023/03/21 04:12:14;;;;;;;6.87;3.33;;;;;;;;;;5022767;28;20212;-71
2023/03/21 04:14:42;;;;;;;5.90;3.27;;;;;;;;;;5023673;28;20204;-71
2023/03/21 04:17:11;;;;;;;6.27;3.53;;;;;;;;;;5021551;28;20303;-71
2023/03/21 04:19:38;;;;;;;7.27;3.80;;;;;;;;;;5027051;28;20221;-70
2023/03/21 04:22:05;;;;;;;5.50;4.20;;;;;;;;;;5020181;28;20222;-71
2023/03/21 04:24:32;;;;;;;4.50;3.60;;;;;;;;;;5020719;28;20211;-71
2023/03/21 04:27:00;;;;;;;6.47;3.63;;;;;;;;;;5019176;28;20200;-71
2023/03/21 04:29:28;;;;;;;5.23;3.37;;;;;;;;;;5029760;28;20203;-70
2023/03/21 04:31:55;;;;;;;6.10;3.33;;;;;;;;;;5019993;28;20219;-71
2023/03/21 04:34:26;;;;;;;5.63;3.13;;;;;;;;;;5018150;28;20208;-71
2023/03/21 04:36:54;;;;;;;6.70;3.30;;;;;;;;;;5020942;28;20221;-71
2023/03/21 04:39:23;;;;;;;6.00;3.33;;;;;;;;;;5018845;28;20228;-71
2023/03/21 04:41:50;;;;;;;5.97;3.20;;;;;;;;;;5018560;28;20228;-71
2023/03/21 04:44:18;;;;;;;5.40;3.47;;;;;;;;;;5019932;28;20208;-71
2023/03/21 04:46:45;;;;;;;6.17;3.20;;;;;;;;;;5020933;28;20279;-71
2023/03/21 04:49:12;;;;;;;6.13;3.13;;;;;;;;;;5024381;28;20272;-71
2023/03/21 04:51:42;;;;;;;6.67;3.20;;;;;;;;;;5022386;28;20208;-71
2023/03/21 04:54:12;;;;;;;4.87;2.93;;;;;;;;;;5020868;28;20196;-71
2023/03/21 04:56:39;;;;;;;4.50;3.03;;;;;;;;;;5026109;28;20200;-71
2023/03/21 04:59:09;;;;;;;4.90;3.20;;;;;;;;;;5021601;28;20215;-71
2023/03/21 05:01:36;;;;;;;4.73;3.00;;;;;;;;;;5018614;28;20204;-71
2023/03/21 05:04:04;;;;;;;7.00;3.30;;;;;;;;;;5022263;28;20200;-71
2023/03/21 05:06:31;;;;;;;4.23;2.97;;;;;;;;;;5021872;28;20210;-71
2023/03/21 05:09:04;;;;;;;4.77;2.80;;;;;;;;;;5021855;28;20204;-71
2023/03/21 05:11:31;;;;;;;5.33;2.70;;;;;;;;;;5015670;28;20297;-72
2023/03/21 05:13:58;;;;;;;5.17;2.77;;;;;;;;;;5021086;28;20204;-72
2023/03/21 05:16:29;;;;;;;5.63;2.80;;;;;;;;;;5025583;28;20234;-72
2023/03/21 05:18:57;;;;;;;3.63;2.63;;;;;;;;;;5026385;28;20208;-72
2023/03/21 05:21:28;;;;;;;5.03;3.00;;;;;;;;;;5026507;28;20252;-72
2023/03/21 05:23:57;;;;;;;4.07;2.50;;;;;;;;;;5024440;28;20196;-72
2023/03/21 05:26:26;;;;;;;3.97;2.70;;;;;;;;;;5023668;28;20215;-71
2023/03/21 05:28:53;;;;;;;4.90;2.90;;;;;;;;;;5025924;28;20205;-72
2023/03/21 05:31:20;;;;;;;6.67;3.30;;;;;;;;;;5023340;28;20204;-71
2023/03/21 05:33:48;;;;;;;6.07;3.50;;;;;;;;;;5025638;28;20212;-71
2023/03/21 05:36:16;;;;;;;5.93;3.37;;;;;;;;;;5029464;28;20254;-72
2023/03/21 05:38:44;;;;;;;4.27;2.67;;;;;;;;;;5023051;28;20211;-71
2023/03/21 05:41:12;;;;;;;4.30;2.80;;;;;;;;;;5021738;28;20230;-71
2023/03/21 05:43:40;;;;;;;3.90;2.67;;;;;;;;;;5023461;28;20201;-71
2023/03/21 05:46:08;;;;;;;4.93;3.13;;;;;;;;;;5021510;28;20235;-72
2023/03/21 05:48:35;;;;;;;7.27;3.93;;;;;;;;;;5023615;28;20204;-71
2023/03/21 05:51:02;;;;;;;9.47;4.50;;;;;;;;;;5021878;28;20196;-72
2023/03/21 05:53:29;;;;;;;7.73;3.50;;;;;;;;;;5021428;28;20214;-71
2023/03/21 05:55:56;;;;;;;6.67;3.90;;;;;;;;;;5023826;28;20207;-71
2023/03/21 05:58:24;;;;;;;5.57;3.47;;;;;;;;;;5026165;28;20231;-71
2023/03/21 06:00:52;;;;;;;6.33;3.70;;;;;;;;;;5023361;28;20216;-71
2023/03/21 06:03:19;;;;;;;5.83;3.60;;;;;;;;;;5023105;28;20209;-72
2023/03/21 06:05:47;;;;;;;5.70;3.13;;;;;;;;;;5023137;28;20207;-71
2023/03/21 06:08:14;;;;;;;5.80;3.30;;;;;;;;;;5023739;28;20207;-71
2023/03/21 06:10:41;;;;;;;4.33;3.03;;;;;;;;;;5022120;28;20196;-71
2023/03/21 06:13:08;;;;;;;8.33;3.87;;;;;;;;;;5024396;28;20228;-71
2023/03/21 06:15:35;;;;;;;5.03;2.87;;;;;;;;;;5027382;28;20204;-71
2023/03/21 06:18:04;;;;;;;5.87;3.60;;;;;;;;;;5021002;28;20196;-70
2023/03/21 06:20:31;;;;;;;5.00;2.67;;;;;;;;;;5019548;28;20221;-71
2023/03/21 06:22:58;;;;;;;4.80;3.20;;;;;;;;;;5020248;28;20207;-70
2023/03/21 06:25:26;;;;;;;5.63;3.13;;;;;;;;;;5020977;28;20203;-70
2023/03/21 06:27:53;;;;;;;6.40;2.90;;;;;;;;;;5021718;28;20237;-71
2023/03/21 06:30:20;;;;;;;6.77;2.77;;;;;;;;;;5028035;28;20200;-71
2023/03/21 06:32:47;;;;;;;4.70;2.80;;;;;;;;;;5027159;28;20204;-71
2023/03/21 06:35:16;;;;;;;7.10;3.20;;;;;;;;;;5025495;28;20234;-71
2023/03/21 06:37:44;;;;;;;5.70;2.60;;;;;;;;;;5026614;28;20203;-70
2023/03/21 06:40:12;;;;;;;4.77;2.80;;;;;;;;;;5022378;28;20221;-71
2023/03/21 06:42:39;;;;;;;5.80;2.73;;;;;;;;;;5023168;28;20227;-70
2023/03/21 06:45:07;;;;;;;4.37;2.80;;;;;;;;;;5018247;28;20205;-71
2023/03/21 06:47:34;;;;;;;5.63;2.60;;;;;;;;;;5021645;28;20200;-71
2023/03/21 06:50:01;;;;;;;6.17;2.60;;;;;;;;;;5022652;28;20192;-71
2023/03/21 06:52:30;;;;;;;6.87;2.60;;;;;;;;;;5023684;28;20231;-71
2023/03/21 06:54:57;;;;;;;6.13;2.90;;;;;;;;;;5022116;28;20203;-71
2023/03/21 06:57:24;;;;;;;5.23;2.30;;;;;;;;;;5021231;28;20196;-71
2023/03/21 06:59:51;;;;;;;5.57;3.10;;;;;;;;;;5021296;28;20205;-71
2023/03/21 07:02:18;;;;;;;4.73;2.70;;;;;;;;;;5023699;28;20201;-70
2023/03/21 07:04:45;;;;;;;5.60;2.80;;;;;;;;;;5023051;28;20270;-70
2023/03/21 07:07:13;;;;;;;4.83;2.90;;;;;;;;;;5025210;28;20300;-71
2023/03/21 07:09:42;;;;;;;6.87;3.13;;;;;;;;;;5026031;28;20211;-71
2023/03/21 07:12:09;;;;;;;5.60;3.00;;;;;;;;;;5011659;28;20211;-70
2023/03/21 07:14:37;;;;;;;5.47;3.53;;;;;;;;;;5016540;28;20205;-71
2023/03/21 07:17:04;;;;;;;7.37;3.80;;;;;;;;;;5016271;28;20212;-71
2023/03/21 07:19:31;;;;;;;5.77;3.77;;;;;;;;;;5023320;28;20231;-71
2023/03/21 07:21:59;;;;;;;4.47;3.60;;;;;;;;;;5020142;28;20227;-71
2023/03/21 07:24:26;;;;;;;7.70;3.70;;;;;;;;;;5019459;28;20244;-70
2023/03/21 07:26:55;;;;;;;6.20;2.90;;;;;;;;;;5017380;28;20216;-71
2023/03/21 07:29:22;;;;;;;6.37;3.70;;;;;;;;;;5017070;28;20249;-71
2023/03/21 07:31:49;;;;;;;6.13;3.63;;;;;;;;;;5019590;28;20208;-70
2023/03/21 07:34:17;;;;;;;4.77;2.80;;;;;;;;;;5023181;28;20254;-71
2023/03/21 07:36:44;;;;;;;7.43;3.60;;;;;;;;;;5026675;28;20258;-71
2023/03/21 07:39:12;;;;;;;4.80;3.07;;;;;;;;;;5021036;28;20196;-71
2023/03/21 07:41:39;;;;;;;5.03;3.27;;;;;;;;;;5021127;28;20224;-71
2023/03/21 07:44:07;;;;;;;11.53;4.23;;;;;;;;;;5020518;28;20343;-70
2023/03/21 07:46:34;;;;;;;23.17;5.63;;;;;;;;;;5022050;28;20200;-71
2023/03/21 07:49:02;;;;;;;18.53;5.03;;;;;;;;;;5022999;28;20214;-71
2023/03/21 07:51:29;;;;;;;11.30;3.80;;;;;;;;;;5021646;28;20300;-70
2023/03/21 07:53:56;;;;;;;7.10;3.60;;;;;;;;;;5012238;28;20247;-71
2023/03/21 07:56:25;;;;;;;6.17;2.80;;;;;;;;;;5020210;28;20279;-72
2023/03/21 07:58:52;;;;;;;5.87;3.40;;;;;;;;;;5023869;28;20238;-72
2023/03/21 08:01:23;;;;;;;5.70;3.07;;;;;;;;;;5018339;28;20322;-72
2023/03/21 08:03:52;;;;;;;6.97;3.00;;;;;;;;;;5018686;28;20200;-72
2023/03/21 08:06:19;;;;;;;5.47;2.80;;;;;;;;;;5019572;28;20537;-72
2023/03/21 08:08:46;;;;;;;3.47;2.70;;;;;;;;;;5024497;28;20208;-71
2023/03/21 08:11:14;;;;;;;4.33;2.20;;;;;;;;;;5019244;28;20215;-72
2023/03/21 08:13:41;;;;;;;4.90;2.93;;;;;;;;;;5005534;28;20217;-72
2023/03/21 08:16:09;;;;;;;5.73;3.17;;;;;;;;;;5027808;28;20291;-72
2023/03/21 08:18:37;;;;;;;4.27;2.83;;;;;;;;;;5029169;28;20204;-72
2023/03/21 08:21:05;;;;;;;6.67;3.10;;;;;;;;;;5021596;28;20216;-72
2023/03/21 08:23:32;;;;;;;4.40;2.90;;;;;;;;;;5025979;28;20207;-72
2023/03/21 08:25:59;;;;;;;4.87;3.00;;;;;;;;;;5022708;28;20208;-72
2023/03/21 08:28:27;;;;;;;4.63;2.80;;;;;;;;;;5020013;28;20211;-72
2023/03/21 08:30:55;;;;;;;5.37;2.80;;;;;;;;;;5025660;28;20287;-72
2023/03/21 08:33:22;;;;;;;6.87;3.00;;;;;;;;;;5022449;28;20258;-72
2023/03/21 08:35:51;;;;;;;4.97;3.37;;;;;;;;;;5018564;28;20223;-71
2023/03/21 08:38:18;;;;;;;6.67;3.40;;;;;;;;;;5025708;28;20210;-72
2023/03/21 08:40:45;;;;;;;8.00;3.93;;;;;;;;;;5021015;28;20224;-72
2023/03/21 08:43:13;;;;;;;5.63;3.37;;;;;;;;;;5024690;28;20200;-72
2023/03/21 08:45:40;;;;;;;6.30;3.87;;;;;;;;;;5026269;28;20250;-71
2023/03/21 08:48:07;;;;;;;6.90;4.03;;;;;;;;;;5026923;28;20212;-71
2023/03/21 08:50:34;;;;;;;7.03;4.20;;;;;;;;;;5023558;28;20204;-71
2023/03/21 08:53:03;;;;;;;7.83;4.07;;;;;;;;;;5032678;28;20299;-70
2023/03/21 08:55:32;;;;;;;5.80;4.70;;;;;;;;;;5026315;28;20227;-71
2023/03/21 08:57:59;;;;;;;5.60;4.90;;;;;;;;;;5030079;28;20204;-71
2023/03/21 09:00:27;;;;;;;6.23;4.57;;;;;;;;;;5025262;28;20216;-70
2023/03/21 09:02:54;;;;;;;7.87;5.17;;;;;;;;;;5027414;28;20201;-69
2023/03/21 09:05:22;;;;;;;8.17;4.67;;;;;;;;;;5027433;28;20274;-70
2023/03/21 09:07:49;;;;;;;8.70;4.67;;;;;;;;;;5021476;28;20210;-70
2023/03/21 09:10:18;;;;;;;4.30;3.73;;;;;;;;;;5022471;28;20216;-70
2023/03/21 09:12:46;;;;;;;6.27;4.07;;;;;;;;;;5026063;28;20199;-71
2023/03/21 09:15:13;;;;;;;7.70;4.53;;;;;;;;;;5023299;28;20197;-70
2023/03/21 09:17:42;;;;;;;8.17;4.60;;;;;;;;;;5018443;28;20209;-70
2023/03/21 09:20:17;;;;;;;6.53;4.30;;;;;;;;;;5021888;28;20209;-70
2023/03/21 09:22:44;;;;;;;5.33;4.37;;;;;;;;;;5022884;28;20227;-70
2023/03/21 09:25:12;;;;;;;4.70;3.97;;;;;;;;;;5027944;28;20219;-70
2023/03/21 09:27:44;;;;;;;8.03;4.67;;;;;;;;;;5023274;28;20210;-70
2023/03/21 09:30:12;;;;;;;6.23;4.10;;;;;;;;;;5023350;28;20219;-71
2023/03/21 09:32:40;;;;;;;5.57;4.00;;;;;;;;;;5029408;28;20200;-70
2023/03/21 09:35:09;;;;;;;6.03;3.60;;;;;;;;;;5028722;28;20227;-69
2023/03/21 09:37:40;;;;;;;3.90;3.60;;;;;;;;;;5026988;28;20209;-70
2023/03/21 09:40:10;;;;;;;6.60;4.20;;;;;;;;;;5026049;28;20208;-69
2023/03/21 09:42:42;;;;;;;3.47;3.03;;;;;;;;;;5022178;28;20213;-70
2023/03/21 09:45:18;;;;;;;5.77;3.93;;;;;;;;;;5026735;28;20204;-69
2023/03/21 09:47:52;;;;;;;7.77;3.70;;;;;;;;;;5026263;28;20204;-70
2023/03/21 09:50:21;;;;;;;4.80;3.70;;;;;;;;;;5020307;28;20240;-70
2023/03/21 09:52:52;;;;;;;5.13;3.43;;;;;;;;;;5024231;28;20203;-70
2023/03/21 09:55:21;;;;;;;4.87;3.70;;;;;;;;;;5019335;28;20209;-69
2023/03/21 09:57:51;;;;;;;6.37;4.07;;;;;;;;;;5033323;28;20207;-70
2023/03/21 10:00:24;;;;;;;4.70;3.83;;;;;;;;;;5025350;28;20267;-70
2023/03/21 10:02:53;;;;;;;4.30;3.53;;;;;;;;;;5025843;28;20268;-70
2023/03/21 10:05:21;;;;;;;4.77;4.10;;;;;;;;;;5029636;28;20293;-70
2023/03/21 10:07:52;;;;;;;5.87;3.90;;;;;;;;;;5028141;28;20268;-70
2023/03/21 10:10:23;;;;;;;6.63;4.07;;;;;;;;;;5025749;28;20200;-69
2023/03/21 10:12:51;;;;;;;5.97;4.10;;;;;;;;;;5028482;28;20200;-70
2023/03/21 10:15:19;;;;;;;5.70;3.53;;;;;;;;;;5025555;28;20208;-70
2023/03/21 10:17:50;;;;;;;5.77;4.30;;;;;;;;;;5021734;28;20235;-69
2023/03/21 10:20:20;;;;;;;6.63;3.70;;;;;;;;;;5026905;28;20205;-69
2023/03/21 10:22:48;;;;;;;5.13;4.20;;;;;;;;;;5018935;28;20224;-70
2023/03/21 10:25:16;;;;;;;5.60;4.47;;;;;;;;;;5024781;28;20290;-70
2023/03/21 10:27:44;;;;;;;6.73;4.33;;;;;;;;;;5021701;28;20226;-70
2023/03/21 10:30:27;;;;;;;5.30;4.10;;;;;;;;;;5023500;28;20215;-70
2023/03/21 10:32:57;;;;;;;5.67;4.27;;;;;;;;;;5026285;28;20203;-70
2023/03/21 10:35:25;;;;;;;6.17;3.80;;;;;;;;;;5019274;28;20224;-70
2023/03/21 10:37:52;;;;;;;5.97;4.20;;;;;;;;;;5024384;28;20235;-70
2023/03/21 10:40:20;;;;;;;5.53;4.00;;;;;;;;;;5020649;28;20272;-68
2023/03/21 10:42:47;;;;;;;6.30;4.17;;;;;;;;;;5025989;28;20277;-69
2023/03/21 10:45:18;;;;;;;4.67;3.80;;;;;;;;;;5023226;28;20208;-69
2023/03/21 10:47:48;;;;;;;5.20;4.13;;;;;;;;;;5025397;28;20238;-69
2023/03/21 10:50:24;;;;;;;5.77;4.53;;;;;;;;;;5018305;28;20240;-68
2023/03/21 10:52:52;;;;;;;6.47;4.40;;;;;;;;;;5019023;28;20207;-68
2023/03/21 10:55:23;;;;;;;7.17;4.77;;;;;;;;;;5022397;28;20212;-69
2023/03/21 10:57:54;;;;;;;4.40;3.80;;;;;;;;;;5019507;28;20299;-68
2023/03/21 11:00:24;;;;;;;7.83;4.33;;;;;;;;;;5017337;28;20294;-67
2023/03/21 11:02:52;;;;;;;8.80;4.40;;;;;;;;;;5019563;28;20256;-68
2023/03/21 11:05:22;;;;;;;6.13;4.50;;;;;;;;;;5025272;28;20208;-68
2023/03/21 11:07:57;;;;;;;4.63;4.20;;;;;;;;;;5022304;28;20213;-68
2023/03/21 11:10:28;;;;;;;4.03;3.33;;;;;;;;;;5020573;28;20210;-68
2023/03/21 11:12:57;;;;;;;6.37;3.70;;;;;;;;;;5028859;28;20199;-68
2023/03/21 11:15:29;;;;;;;4.00;3.33;;;;;;;;;;5021943;28;20209;-67
2023/03/21 11:17:56;;;;;;;7.50;4.27;;;;;;;;;;5019012;28;20216;-68
2023/03/21 11:20:25;;;;;;;5.40;4.00;;;;;;;;;;5019991;28;20300;-68
2023/03/21 11:22:55;;;;;;;6.50;4.17;;;;;;;;;;5019698;28;20238;-67
2023/03/21 11:25:23;;;;;;;5.47;4.10;;;;;;;;;;5022699;28;20209;-68
2023/03/21 11:27:51;;;;;;;6.93;4.20;;;;;;;;;;5020306;28;20211;-68
2023/03/21 11:30:21;;;;;;;7.90;4.00;;;;;;;;;;5023903;28;20211;-68
2023/03/21 11:32:51;;;;;;;6.50;4.23;;;;;;;;;;5028464;28;20200;-67
2023/03/21 11:35:20;;;;;;;8.47;4.60;;;;;;;;;;5022762;28;20208;-67
2023/03/21 11:37:52;;;;;;;5.53;4.03;;;;;;;;;;5019279;28;20209;-68
2023/03/21 11:40:22;;;;;;;4.67;4.07;;;;;;;;;;5022817;28;20206;-67
2023/03/21 11:42:50;;;;;;;6.20;4.40;;;;;;;;;;5027070;28;20311;-67
2023/03/21 11:45:19;;;;;;;9.00;5.10;;;;;;;;;;5023596;28;20225;-67
2023/03/21 11:47:48;;;;;;;6.63;5.40;;;;;;;;;;5025117;28;20283;-67
2023/03/21 11:50:20;;;;;;;6.80;5.00;;;;;;;;;;5023656;28;20200;-68
2023/03/21 11:52:52;;;;;;;6.30;4.57;;;;;;;;;;5019499;28;20278;-68
2023/03/21 11:55:27;;;;;;;4.63;3.87;;;;;;;;;;5025394;28;20280;-67
2023/03/21 11:58:02;;;;;;;6.23;3.87;;;;;;;;;;5023034;28;20207;-61
2023/03/21 12:00:33;;;;;;;5.60;4.47;;;;;;;;;;5024232;28;20219;-68
2023/03/21 12:03:22;;;;;;;5.83;4.23;;;;;;;;;;5026094;28;20235;-67
2023/03/21 12:05:53;;;;;;;6.57;3.97;;;;;;;;;;5016356;28;20224;-67
2023/03/21 12:08:30;;;;;;;5.80;3.90;;;;;;;;;;5028556;28;20208;-67
2023/03/21 12:11:03;;;;;;;4.07;3.67;;;;;;;;;;5023035;28;20262;-67
2023/03/21 12:13:37;;;;;;;6.00;4.07;;;;;;;;;;5024274;28;20203;-67
2023/03/21 12:16:11;;;;;;;4.43;3.60;;;;;;;;;;5022424;28;20215;-68
2023/03/21 12:18:50;;;;;;;7.83;3.77;;;;;;;;;;5020995;28;20203;-68
2023/03/21 12:21:20;;;;;;;6.03;3.97;;;;;;;;;;5022173;28;20204;-68
2023/03/21 12:23:56;;;;;;;5.70;3.47;;;;;;;;;;5024385;28;20228;-67
2023/03/21 12:26:26;;;;;;;5.80;3.67;;;;;;;;;;5029563;28;20211;-68
2023/03/21 12:29:05;;;;;;;5.87;4.23;;;;;;;;;;5023148;28;20210;-68
2023/03/21 12:31:37;;;;;;;6.07;4.43;;;;;;;;;;5027751;28;20211;-68
2023/03/21 12:34:12;;;;;;;5.47;3.80;;;;;;;;;;5027150;28;20192;-68
2023/03/21 12:36:53;;;;;;;3.70;3.30;;;;;;;;;;5023748;28;20222;-68
2023/03/21 12:39:25;;;;;;;4.93;3.40;;;;;;;;;;5025133;28;20214;-68
2023/03/21 12:41:57;;;;;;;4.03;3.60;;;;;;;;;;5024294;28;20209;-68
2023/03/21 12:44:28;;;;;;;4.90;3.30;;;;;;;;;;5026649;28;20204;-68
2023/03/21 12:46:57;;;;;;;4.30;3.60;;;;;;;;;;5026703;28;20208;-68
2023/03/21 12:49:27;;;;;;;5.97;3.83;;;;;;;;;;5025064;28;20203;-68
2023/03/21 12:51:57;;;;;;;6.03;4.17;;;;;;;;;;5025294;28;20203;-68
2023/03/21 12:54:29;;;;;;;5.87;4.30;;;;;;;;;;5026529;28;20205;-68
2023/03/21 12:56:59;;;;;;;6.13;4.57;;;;;;;;;;5029753;28;20212;-68
2023/03/21 12:59:31;;;;;;;5.78;4.50;;;;;;;;;;5028001;28;20212;-68
2023/03/21 13:02:01;;;;;;;5.87;4.47;;;;;;;;;;5023532;28;20196;-71
2023/03/21 13:04:49;;;;;;;5.07;4.53;;;;;;;;;;5027928;28;20211;-71
2023/03/21 13:07:18;;;;;;;6.10;4.40;;;;;;;;;;5020606;28;20295;-69
2023/03/21 13:09:47;;;;;;;6.70;4.97;;;;;;;;;;5022925;28;20212;-71
2023/03/21 13:12:20;;;;;;;5.37;4.50;;;;;;;;;;5019196;28;20201;-70
2023/03/21 13:14:52;;;;;;;6.37;4.90;;;;;;;;;;5023665;28;20212;-71
2023/03/21 13:17:23;;;;;;;4.73;4.20;;;;;;;;;;5025708;28;20197;-71
2023/03/21 13:19:53;;;;;;;5.93;4.30;;;;;;;;;;5023344;28;20296;-71
2023/03/21 13:22:22;;;;;;;5.00;4.50;;;;;;;;;;5024344;28;20235;-71
2023/03/21 13:24:56;;;;;;;5.37;4.87;;;;;;;;;;5020590;28;20303;-71
2023/03/21 13:27:27;;;;;;;5.27;4.77;;;;;;;;;;5024552;28;20216;-70
2023/03/21 13:29:54;;;;;;;5.87;4.80;;;;;;;;;;5028914;28;20216;-71
2023/03/21 13:32:25;;;;;;;5.87;5.00;;;;;;;;;;5023088;28;20205;-71
2023/03/21 13:34:56;;;;;;;5.47;4.97;;;;;;;;;;5024448;28;20207;-71
2023/03/21 13:37:26;;;;;;;5.60;5.00;;;;;;;;;;4996107;28;20239;-71
2023/03/21 13:40:00;;;;;;;5.70;5.03;;;;;;;;;;5009002;28;20224;-71
2023/03/21 13:42:31;;;;;;;7.73;4.97;;;;;;;;;;5006234;28;20242;-70
2023/03/21 13:45:01;;;;;;;5.27;4.77;;;;;;;;;;5008389;28;20204;-69
2023/03/21 13:47:42;;;;;;;6.57;4.73;;;;;;;;;;5008799;28;20204;-69
2023/03/21 13:50:30;;;;;;;5.87;5.07;;;;;;;;;;5006619;28;20291;-69
2023/03/21 13:53:27;;;;;;;6.30;4.70;;;;;;;;;;4979575;28;20219;-69
2023/03/21 13:56:21;;;;;;;7.47;5.40;;;;;;;;;;5004328;28;20204;-68
2023/03/21 13:59:09;;;;;;;5.60;4.93;;;;;;;;;;4984684;28;20215;-68
2023/03/21 14:01:40;;;;;;;5.68;5.18;;;;;;;;;;4998839;28;20265;-63
2023/03/21 14:04:17;;;;;;;5.27;4.77;;;;;;;;;;5006560;28;20225;-62
2023/03/21 14:06:47;;;;;;;5.73;5.13;;;;;;;;;;5008148;28;20207;-62
2023/03/21 14:09:18;;;;;;;5.67;5.00;;;;;;;;;;5011192;28;20292;-62
2023/03/21 14:11:47;;;;;;;6.05;4.70;;;;;;;;;;5005540;28;20220;-62
2023/03/21 14:14:15;;;;;;;6.30;4.80;;;;;;;;;;5005171;28;20221;-62
2023/03/21 14:16:44;;;;;;;6.03;4.85;;;;;;;;;;5005414;28;20295;-61
2023/03/21 14:19:12;;;;;;;5.65;5.10;;;;;;;;;;5004579;28;20216;-62
2023/03/21 14:21:46;;;;;;;5.97;5.37;;;;;;;;;;5004404;28;20211;-62
2023/03/21 14:24:14;;;;;;;5.90;4.70;;;;;;;;;;5004977;28;20220;-62
2023/03/21 14:26:42;;;;;;;6.47;5.43;;;;;;;;;;5004737;28;20209;-62
2023/03/21 14:29:12;;;;;;;6.03;5.45;;;;;;;;;;4993910;28;20220;-62
2023/03/21 14:31:39;;;;;;;5.50;5.00;;;;;;;;;;4994475;28;20207;-64
2023/03/21 14:34:11;;;;;;;6.20;5.05;;;;;;;;;;4989383;28;20208;-62
2023/03/21 14:36:40;;;;;;;6.05;4.90;;;;;;;;;;5016133;28;20255;-62
2023/03/21 14:39:12;;;;;;;5.47;4.38;;;;;;;;;;5023052;28;20208;-62
2023/03/21 14:41:45;;;;;;;7.07;4.97;;;;;;;;;;5015464;28;20243;-63
2023/03/21 14:44:15;;;;;;;5.20;4.70;;;;;;;;;;5019481;28;20222;-62
2023/03/21 14:46:42;;;;;;;5.40;4.90;;;;;;;;;;5022277;28;20216;-62
2023/03/21 14:49:21;;;;;;;4.90;4.40;;;;;;;;;;5017746;28;20212;-62
2023/03/21 14:51:48;;;;;;;5.50;4.80;;;;;;;;;;5017899;28;20204;-62
2023/03/21 14:54:17;;;;;;;5.63;5.00;;;;;;;;;;5025065;28;20215;-62
2023/03/21 14:56:46;;;;;;;5.28;4.75;;;;;;;;;;5021574;28;20235;-62
2023/03/21 14:59:15;;;;;;;5.80;4.60;;;;;;;;;;5020905;28;20220;-62
2023/03/21 15:01:44;;;;;;;5.15;4.68;;;;;;;;;;5021089;28;20295;-62
2023/03/21 15:04:12;;;;;;;6.45;4.82;;;;;;;;;;5017635;28;20229;-62